Time;durP1;ratioP1;P1;durP2;ratioP2;P2;SDS_P1;SDS_P2;PMS_P1;PMS_P2;Temp;Humidity;BMP_temperature;BMP_pressure;BME280_temperature;BME280_humidity;BME280_pressure;Samples;Min_cycle;Max_cycle;Signal;HPM_P1;HPM_P2
2022/07/19 04:02:38;;;;;;;7.50;6.87;;;16.40;99.90;;;;;;5023166;23;20647;-70
2022/07/19 04:05:05;;;;;;;8.87;8.17;;;16.50;99.90;;;;;;5009074;28;20558;-71
2022/07/19 04:07:32;;;;;;;7.30;6.73;;;16.50;99.90;;;;;;5010672;28;20472;-70
2022/07/19 04:09:59;;;;;;;8.63;7.93;;;16.50;99.90;;;;;;5009318;28;20476;-72
2022/07/19 04:12:25;;;;;;;10.20;6.67;;;16.50;99.90;;;;;;5009134;28;20574;-69
2022/07/19 04:14:52;;;;;;;6.90;6.50;;;16.50;99.90;;;;;;5009509;28;20601;-70
2022/07/19 04:17:20;;;;;;;6.80;6.33;;;16.60;99.90;;;;;;5009490;28;20518;-69
2022/07/19 04:19:48;;;;;;;7.50;7.00;;;16.60;99.90;;;;;;5010344;28;20468;-70
2022/07/19 04:22:14;;;;;;;8.23;7.60;;;16.60;99.90;;;;;;5005503;28;20853;-71
2022/07/19 04:24:41;;;;;;;8.47;7.57;;;16.70;99.90;;;;;;5006714;28;20499;-72
2022/07/19 04:27:09;;;;;;;8.30;7.60;;;16.80;99.90;;;;;;5010541;28;20464;-70
2022/07/19 04:29:35;;;;;;;8.17;7.47;;;16.80;99.90;;;;;;5008484;28;20566;-70
2022/07/19 04:32:02;;;;;;;10.27;7.67;;;16.90;99.90;;;;;;5008493;28;20547;-70
2022/07/19 04:34:29;;;;;;;7.97;7.33;;;17.10;99.90;;;;;;5003878;28;20465;-70
2022/07/19 04:36:57;;;;;;;8.07;7.57;;;17.80;99.90;;;;;;5007320;28;20969;-70
2022/07/19 04:39:24;;;;;;;7.10;6.60;;;18.70;99.90;;;;;;5010098;28;20465;-70
2022/07/19 04:41:50;;;;;;;7.60;6.90;;;19.30;99.90;;;;;;5009684;28;20536;-70
2022/07/19 04:44:17;;;;;;;14.03;8.00;;;20.20;99.90;;;;;;4990491;28;20562;-70
2022/07/19 04:46:44;;;;;;;7.83;7.23;;;21.00;99.90;;;;;;4993612;28;20511;-73
2022/07/19 04:49:10;;;;;;;7.30;6.33;;;21.60;99.90;;;;;;5010862;28;20586;-70
2022/07/19 04:51:37;;;;;;;7.33;6.83;;;22.10;99.90;;;;;;5008609;28;20498;-70
2022/07/19 04:54:05;;;;;;;6.70;6.30;;;22.40;99.90;;;;;;5009338;28;20468;-70
2022/07/19 04:56:32;;;;;;;7.10;6.60;;;22.70;99.90;;;;;;5009199;28;20470;-70
2022/07/19 04:58:58;;;;;;;7.03;6.53;;;22.90;99.90;;;;;;5010082;28;20466;-71
2022/07/19 05:01:25;;;;;;;6.63;6.13;;;23.40;99.90;;;;;;5008372;28;20585;-71
2022/07/19 05:03:52;;;;;;;7.17;6.57;;;23.60;99.90;;;;;;5006761;28;20572;-71
2022/07/19 05:06:18;;;;;;;7.60;7.00;;;23.90;99.90;;;;;;5008890;28;20474;-74
2022/07/19 05:08:45;;;;;;;6.40;6.13;;;23.80;99.90;;;;;;5008007;28;20470;-70
2022/07/19 05:11:13;;;;;;;6.77;6.33;;;24.00;99.90;;;;;;5001962;28;20516;-71
2022/07/19 05:13:40;;;;;;;6.63;6.27;;;24.30;99.90;;;;;;5006291;28;20467;-71
2022/07/19 05:16:07;;;;;;;6.80;6.40;;;24.60;99.90;;;;;;5009497;28;20960;-72
2022/07/19 05:18:34;;;;;;;7.13;6.53;;;25.10;99.90;;;;;;5007660;28;20471;-71
2022/07/19 05:21:00;;;;;;;7.40;6.90;;;25.40;99.90;;;;;;5009843;28;20488;-71
2022/07/19 05:23:27;;;;;;;7.03;6.40;;;25.70;99.90;;;;;;5001183;28;20459;-71
2022/07/19 05:25:54;;;;;;;7.33;6.90;;;26.00;99.90;;;;;;5009379;28;20469;-71
2022/07/19 05:28:22;;;;;;;7.30;6.80;;;26.10;99.90;;;;;;5011698;28;20969;-71
2022/07/19 05:30:48;;;;;;;6.77;6.20;;;26.50;99.90;;;;;;5012900;28;20538;-71
2022/07/19 05:33:16;;;;;;;6.90;6.40;;;26.80;99.90;;;;;;5011343;28;20576;-72
2022/07/19 05:35:43;;;;;;;7.37;6.77;;;27.10;99.90;;;;;;5006730;28;20478;-72
2022/07/19 05:38:09;;;;;;;7.90;7.33;;;27.30;99.90;;;;;;5010647;28;20880;-71
2022/07/19 05:40:36;;;;;;;7.20;6.70;;;27.40;99.90;;;;;;5008738;28;20498;-71
2022/07/19 05:43:03;;;;;;;6.60;6.27;;;27.10;99.90;;;;;;5008369;28;20781;-72
2022/07/19 05:45:31;;;;;;;6.33;5.90;;;26.90;99.90;;;;;;5010586;28;20635;-71
2022/07/19 05:47:58;;;;;;;6.97;6.47;;;27.00;99.90;;;;;;5012367;28;20464;-70
2022/07/19 05:50:24;;;;;;;6.70;6.27;;;27.00;99.90;;;;;;5010571;28;20529;-69
2022/07/19 05:52:51;;;;;;;6.40;6.00;;;26.70;99.90;;;;;;5009344;28;20469;-72
2022/07/19 05:55:18;;;;;;;7.07;6.63;;;26.40;99.90;;;;;;5007852;28;20474;-70
2022/07/19 05:57:44;;;;;;;6.90;6.40;;;26.20;99.90;;;;;;5009602;28;20462;-69
2022/07/19 06:00:14;;;;;;;7.23;6.73;;;26.00;99.90;;;;;;5004046;28;20494;-71
2022/07/19 06:02:42;;;;;;;7.23;6.73;;;26.00;99.90;;;;;;5004138;28;20506;-69
2022/07/19 06:05:09;;;;;;;7.60;7.00;;;26.00;99.90;;;;;;5009996;28;20562;-70
2022/07/19 06:07:36;;;;;;;7.53;6.60;;;26.30;99.90;;;;;;5012311;28;20493;-72
2022/07/19 06:10:03;;;;;;;8.00;7.20;;;26.60;99.90;;;;;;5007502;28;20467;-72
2022/07/19 06:12:30;;;;;;;7.73;7.13;;;26.80;99.90;;;;;;5010472;28;20497;-71
2022/07/19 06:14:56;;;;;;;7.50;7.00;;;27.10;99.90;;;;;;5001160;28;20455;-71
2022/07/19 06:17:23;;;;;;;8.07;7.37;;;27.60;99.90;;;;;;5010302;28;20467;-72
2022/07/19 06:19:51;;;;;;;7.70;7.20;;;27.80;99.90;;;;;;5012661;28;20460;-71
2022/07/19 06:22:18;;;;;;;8.57;7.67;;;28.20;99.60;;;;;;5003112;28;20485;-74
2022/07/19 06:24:45;;;;;;;7.40;6.93;;;28.70;98.80;;;;;;5004936;28;20488;-73
2022/07/19 06:27:11;;;;;;;7.43;7.00;;;29.20;97.90;;;;;;5009301;28;20485;-71
2022/07/19 06:29:38;;;;;;;7.23;6.83;;;29.60;96.20;;;;;;4993168;28;20473;-72
2022/07/19 06:32:05;;;;;;;8.10;7.50;;;29.80;95.30;;;;;;4992391;28;20498;-74
2022/07/19 06:34:32;;;;;;;8.03;7.50;;;29.60;94.90;;;;;;4993098;28;20482;-70
2022/07/19 06:37:00;;;;;;;7.17;6.70;;;29.50;95.00;;;;;;4998501;28;20866;-73
2022/07/19 06:39:27;;;;;;;9.53;8.73;;;29.80;94.90;;;;;;5005357;28;20470;-73
2022/07/19 06:41:53;;;;;;;9.97;9.27;;;29.90;94.10;;;;;;5000283;28;20489;-72
2022/07/19 06:44:20;;;;;;;8.27;7.67;;;30.20;94.10;;;;;;5004766;28;20539;-72
2022/07/19 06:46:47;;;;;;;8.67;7.93;;;30.50;94.00;;;;;;5008765;28;20473;-71
2022/07/19 06:49:13;;;;;;;8.37;7.83;;;31.00;92.80;;;;;;5011859;28;20531;-70
2022/07/19 06:51:40;;;;;;;8.53;8.03;;;31.40;92.70;;;;;;5009940;28;20490;-70
2022/07/19 06:54:08;;;;;;;8.67;7.80;;;31.80;91.60;;;;;;5011255;28;20462;-73
2022/07/19 06:56:35;;;;;;;8.23;7.73;;;31.90;91.20;;;;;;5007017;28;20841;-72
2022/07/19 06:59:02;;;;;;;8.43;7.83;;;32.00;90.80;;;;;;5004229;28;20472;-70
2022/07/19 07:01:28;;;;;;;8.20;7.63;;;32.20;90.50;;;;;;5003502;28;20527;-71
2022/07/19 07:03:55;;;;;;;8.13;7.63;;;32.60;89.70;;;;;;4995861;28;20511;-73
2022/07/19 07:06:22;;;;;;;8.70;7.90;;;33.10;88.20;;;;;;5010099;28;20474;-70
2022/07/19 07:08:48;;;;;;;8.07;7.57;;;33.60;86.00;;;;;;5009335;28;20816;-70
2022/07/19 07:11:16;;;;;;;7.80;7.30;;;33.80;85.80;;;;;;5001340;28;20489;-73
2022/07/19 07:13:43;;;;;;;8.37;7.87;;;34.00;84.20;;;;;;5009972;28;20507;-73
2022/07/19 07:16:10;;;;;;;8.17;7.53;;;34.00;83.50;;;;;;5006604;28;20532;-71
2022/07/19 07:18:37;;;;;;;8.80;8.20;;;34.10;81.90;;;;;;5010193;28;20517;-71
2022/07/19 07:21:04;;;;;;;8.00;7.43;;;33.80;81.50;;;;;;5005516;28;20512;-74
2022/07/19 07:23:30;;;;;;;8.60;7.90;;;33.70;83.30;;;;;;5008053;28;20871;-71
2022/07/19 07:25:57;;;;;;;8.37;7.73;;;33.90;82.00;;;;;;5001930;28;21014;-74
2022/07/19 07:28:25;;;;;;;8.77;8.17;;;34.20;81.40;;;;;;5005956;28;20470;-73
2022/07/19 07:30:52;;;;;;;8.27;7.83;;;34.60;79.50;;;;;;5005057;28;20486;-75
2022/07/19 07:33:18;;;;;;;8.73;8.03;;;34.90;78.10;;;;;;5006215;28;20470;-71
2022/07/19 07:35:45;;;;;;;9.00;8.30;;;35.20;76.90;;;;;;5002902;28;20482;-71
2022/07/19 07:38:12;;;;;;;8.07;7.53;;;35.40;76.10;;;;;;5008361;28;20466;-74
2022/07/19 07:40:39;;;;;;;7.77;7.27;;;35.50;75.20;;;;;;5003589;28;20814;-73
2022/07/19 07:43:06;;;;;;;8.03;7.40;;;35.70;74.60;;;;;;5009639;28;20466;-70
2022/07/19 07:45:34;;;;;;;6.83;6.40;;;35.50;74.60;;;;;;4999542;28;20978;-72
2022/07/19 07:48:01;;;;;;;7.70;7.00;;;35.90;72.50;;;;;;5009519;28;20470;-76
2022/07/19 07:50:28;;;;;;;6.73;6.33;;;36.20;70.60;;;;;;5007691;28;20477;-70
2022/07/19 07:52:55;;;;;;;6.50;6.10;;;36.10;67.80;;;;;;4998617;28;20475;-73
2022/07/19 07:55:21;;;;;;;5.67;5.20;;;35.80;67.80;;;;;;4998957;28;20479;-72
2022/07/19 07:57:48;;;;;;;7.53;7.10;;;35.50;67.90;;;;;;4991130;28;20459;-71
2022/07/19 08:00:15;;;;;;;6.10;5.70;;;35.70;67.30;;;;;;4998639;28;20458;-74
2022/07/19 08:02:44;;;;;;;6.47;6.17;;;36.00;65.70;;;;;;5000866;28;20473;-71
2022/07/19 08:05:12;;;;;;;4.77;4.67;;;36.00;65.30;;;;;;5009972;28;20478;-72
2022/07/19 08:07:39;;;;;;;4.47;4.37;;;35.90;62.80;;;;;;5008725;28;20469;-71
2022/07/19 08:10:09;;;;;;;4.57;4.40;;;36.00;60.00;;;;;;5006125;28;20466;-72
2022/07/19 08:12:36;;;;;;;4.47;4.27;;;35.90;59.10;;;;;;5010419;28;20507;-71
2022/07/19 08:15:03;;;;;;;4.30;4.00;;;35.70;58.20;;;;;;5010716;28;20458;-71
2022/07/19 08:17:30;;;;;;;4.50;4.10;;;36.00;57.40;;;;;;5008739;28;21016;-72
2022/07/19 08:19:59;;;;;;;4.10;4.00;;;35.90;57.50;;;;;;5006985;28;21005;-73
2022/07/19 08:22:28;;;;;;;4.50;4.20;;;35.50;56.90;;;;;;5009930;28;20982;-72
2022/07/19 08:24:54;;;;;;;4.13;4.03;;;35.40;56.90;;;;;;5008699;28;20490;-71
2022/07/19 08:27:21;;;;;;;4.80;4.60;;;35.30;56.10;;;;;;5004177;28;20827;-74
2022/07/19 08:29:48;;;;;;;3.90;3.90;;;35.40;56.10;;;;;;5008624;28;20962;-71
2022/07/19 08:32:15;;;;;;;4.03;3.90;;;35.40;56.70;;;;;;5009498;28;20548;-71
2022/07/19 08:34:42;;;;;;;3.90;3.70;;;35.00;55.40;;;;;;5007625;28;20513;-77
2022/07/19 08:37:10;;;;;;;3.50;3.50;;;34.60;55.40;;;;;;5002233;28;20939;-72
2022/07/19 08:39:36;;;;;;;4.27;4.17;;;34.40;55.80;;;;;;5008798;28;20465;-72
2022/07/19 08:42:03;;;;;;;3.80;3.70;;;34.40;56.40;;;;;;5005894;28;20496;-72
2022/07/19 08:44:30;;;;;;;4.70;4.40;;;34.30;56.00;;;;;;5009042;28;20969;-72
2022/07/19 08:46:57;;;;;;;5.87;5.07;;;34.10;55.90;;;;;;4998465;28;20998;-72
2022/07/19 08:49:24;;;;;;;4.60;4.30;;;33.80;57.20;;;;;;5008236;28;20962;-72
2022/07/19 08:51:52;;;;;;;4.80;4.50;;;33.60;56.50;;;;;;5000469;28;20993;-74
2022/07/19 08:54:20;;;;;;;4.30;4.10;;;33.20;57.10;;;;;;5007169;28;20465;-72
2022/07/19 08:59:33;;;;;;;3.87;3.77;;;32.60;57.00;;;;;;5010352;28;20897;-71
2022/07/19 09:01:59;;;;;;;4.40;4.10;;;32.50;58.00;;;;;;5004624;28;20501;-71
2022/07/19 09:04:28;;;;;;;4.53;4.33;;;32.20;58.30;;;;;;5003291;28;20892;-71
2022/07/19 09:06:56;;;;;;;3.90;3.80;;;31.80;58.60;;;;;;5009170;28;20500;-73
2022/07/19 09:09:27;;;;;;;4.37;4.13;;;31.70;59.50;;;;;;5011319;28;20866;-71
2022/07/19 09:11:55;;;;;;;45.87;27.20;;;31.70;59.40;;;;;;5010664;28;20973;-70
2022/07/19 09:14:24;;;;;;;5.47;5.13;;;31.70;59.90;;;;;;5014471;28;20835;-71
2022/07/19 09:17:02;;;;;;;4.03;3.93;;;31.60;59.70;;;;;;5006201;28;20473;-71
2022/07/19 09:19:30;;;;;;;4.20;3.80;;;31.40;59.70;;;;;;5017772;28;20893;-71
2022/07/19 09:22:00;;;;;;;4.33;4.10;;;31.40;60.10;;;;;;5010804;28;20826;-71
2022/07/19 09:24:30;;;;;;;3.50;3.30;;;31.30;61.10;;;;;;5015121;28;20462;-71
2022/07/19 09:27:02;;;;;;;3.87;3.67;;;31.20;60.30;;;;;;5006104;28;20839;-71
2022/07/19 09:29:31;;;;;;;4.20;4.10;;;31.20;60.60;;;;;;5012569;28;20811;-72
2022/07/19 09:32:07;;;;;;;7.30;6.80;;;31.20;61.00;;;;;;5013209;28;20866;-70
2022/07/19 09:34:34;;;;;;;3.80;3.50;;;31.20;60.60;;;;;;5012588;28;20868;-71
2022/07/19 09:37:16;;;;;;;12.27;11.37;;;31.20;59.50;;;;;;5005199;28;20469;-71
2022/07/19 09:39:46;;;;;;;6.33;5.93;;;31.40;58.80;;;;;;5001797;28;20462;-72
2022/07/19 09:42:14;;;;;;;3.87;3.67;;;31.20;59.40;;;;;;5003381;28;20488;-71
2022/07/19 09:44:41;;;;;;;3.60;3.40;;;31.00;59.00;;;;;;4997019;28;20501;-72
2022/07/19 09:47:08;;;;;;;3.20;3.00;;;30.90;59.20;;;;;;4996278;28;20500;-73
2022/07/19 09:49:35;;;;;;;4.07;3.77;;;31.00;57.90;;;;;;5006424;28;20473;-72
2022/07/19 09:52:02;;;;;;;3.17;3.07;;;31.10;59.30;;;;;;5000907;28;20490;-73
2022/07/19 09:54:31;;;;;;;2.73;2.63;;;31.20;58.00;;;;;;5009760;28;20480;-71
2022/07/19 09:57:00;;;;;;;3.50;3.40;;;31.10;57.50;;;;;;5000407;28;20666;-72
2022/07/19 09:59:28;;;;;;;3.10;3.00;;;31.10;58.00;;;;;;5002637;28;20796;-71
2022/07/19 10:01:56;;;;;;;4.10;3.80;;;31.30;58.30;;;;;;5008734;28;21057;-72
2022/07/19 10:04:25;;;;;;;4.73;2.93;;;31.30;58.40;;;;;;5010757;28;20898;-71
2022/07/19 10:06:53;;;;;;;3.27;3.10;;;31.20;58.10;;;;;;5004739;28;20482;-72
2022/07/19 10:09:23;;;;;;;2.90;2.90;;;31.30;58.50;;;;;;5007923;28;20549;-73
2022/07/19 10:11:51;;;;;;;3.40;3.30;;;31.40;57.70;;;;;;5003549;28;20488;-71
2022/07/19 10:14:19;;;;;;;2.60;2.60;;;31.50;57.50;;;;;;4995836;28;20471;-74
2022/07/19 10:17:15;;;;;;;2.83;2.77;;;31.50;57.00;;;;;;5008326;28;20478;-72
2022/07/19 10:19:44;;;;;;;3.17;3.07;;;31.50;57.60;;;;;;5004373;28;20482;-71
2022/07/19 10:22:13;;;;;;;3.03;3.03;;;31.60;57.60;;;;;;4997980;28;20968;-71
2022/07/19 10:24:48;;;;;;;2.90;2.73;;;31.60;56.20;;;;;;4998414;28;20478;-71
2022/07/19 10:27:17;;;;;;;3.00;2.90;;;31.60;57.00;;;;;;5007500;28;20481;-72
2022/07/19 10:29:45;;;;;;;2.90;2.80;;;31.70;57.50;;;;;;5003784;28;20463;-71
2022/07/19 10:32:13;;;;;;;2.50;2.40;;;31.60;57.40;;;;;;5006470;28;20499;-71
2022/07/19 10:34:41;;;;;;;3.00;2.90;;;31.60;57.20;;;;;;5004816;28;20471;-71
2022/07/19 10:37:08;;;;;;;3.37;3.03;;;31.60;57.50;;;;;;5008311;28;20467;-70
2022/07/19 10:39:35;;;;;;;3.30;3.20;;;31.70;56.70;;;;;;5005390;28;20482;-71
2022/07/19 10:42:07;;;;;;;2.50;2.50;;;31.80;54.90;;;;;;5005211;28;20493;-70
2022/07/19 10:44:35;;;;;;;2.70;2.70;;;31.90;55.00;;;;;;4998687;28;20474;-74
2022/07/19 10:47:03;;;;;;;3.30;3.10;;;31.70;55.80;;;;;;5004776;28;20489;-71
2022/07/19 10:49:43;;;;;;;3.60;2.80;;;31.70;56.40;;;;;;5008037;28;20466;-71
2022/07/19 10:52:32;;;;;;;3.23;3.03;;;31.70;56.70;;;;;;5011436;28;20487;-72
2022/07/19 10:55:29;;;;;;;3.23;3.03;;;31.70;56.00;;;;;;5017438;28;20456;-72
2022/07/19 10:58:10;;;;;;;3.90;2.70;;;31.90;56.30;;;;;;5029556;28;20439;-74
2022/07/19 11:00:43;;;;;;;3.17;3.00;;;31.90;55.80;;;;;;5013479;28;20997;-73
2022/07/19 11:03:30;;;;;;;4.47;3.40;;;31.90;56.40;;;;;;4997374;28;20471;-75
2022/07/19 11:05:58;;;;;;;2.53;2.53;;;32.00;55.90;;;;;;5006048;28;20510;-71
2022/07/19 11:08:33;;;;;;;3.03;2.93;;;32.10;55.40;;;;;;5004984;28;20524;-72
2022/07/19 11:11:04;;;;;;;3.30;3.20;;;32.10;54.40;;;;;;5000866;28;21210;-73
2022/07/19 11:13:31;;;;;;;2.20;2.20;;;32.00;54.40;;;;;;5009197;28;20471;-71
2022/07/19 11:15:58;;;;;;;2.40;2.30;;;32.20;54.70;;;;;;5007425;28;20484;-74
2022/07/19 11:18:25;;;;;;;2.60;2.50;;;32.40;53.70;;;;;;5007115;28;20486;-71
2022/07/19 11:20:57;;;;;;;3.33;2.63;;;32.40;52.80;;;;;;5003113;28;20501;-72
2022/07/19 11:23:24;;;;;;;2.30;2.30;;;32.40;54.70;;;;;;5010167;28;20464;-72
2022/07/19 11:25:51;;;;;;;2.20;2.10;;;32.40;53.70;;;;;;5009543;28;21016;-71
2022/07/19 11:28:21;;;;;;;2.00;2.00;;;32.50;53.50;;;;;;5030300;22;20483;-69
2022/07/19 11:30:48;;;;;;;4.40;2.40;;;32.60;54.20;;;;;;4989312;28;20472;-68
2022/07/19 11:33:18;;;;;;;2.40;2.33;;;32.60;51.60;;;;;;4990476;28;20516;-68
2022/07/19 11:35:57;;;;;;;3.17;3.00;;;32.60;52.90;;;;;;4989984;28;20926;-68
2022/07/19 11:38:24;;;;;;;2.83;2.73;;;32.60;53.40;;;;;;4991377;28;20532;-69
2022/07/19 11:40:50;;;;;;;2.77;2.73;;;32.60;53.10;;;;;;4990904;28;20466;-68
2022/07/19 11:43:17;;;;;;;2.50;2.40;;;32.70;53.00;;;;;;4991343;28;20456;-68
2022/07/19 11:45:46;;;;;;;3.23;3.07;;;32.80;52.80;;;;;;4985683;28;20482;-69
2022/07/19 11:48:23;;;;;;;2.30;2.30;;;32.70;52.50;;;;;;5008503;23;20660;-68
2022/07/19 11:51:00;;;;;;;2.57;2.47;;;32.90;51.20;;;;;;4990376;28;20476;-69
2022/07/19 11:53:28;;;;;;;3.00;2.90;;;32.90;50.50;;;;;;4987083;28;21836;-69
2022/07/19 11:55:56;;;;;;;2.80;2.60;;;32.90;51.40;;;;;;4989348;28;20971;-69
2022/07/19 11:58:23;;;;;;;1.90;1.90;;;32.90;52.00;;;;;;4985780;28;20501;-68
2022/07/19 12:00:50;;;;;;;2.63;2.63;;;32.70;51.90;;;;;;4984509;28;20470;-68
2022/07/19 12:03:18;;;;;;;2.07;2.00;;;32.80;51.50;;;;;;4989695;28;20476;-68
2022/07/19 12:05:57;;;;;;;3.50;2.73;;;32.80;51.00;;;;;;4989728;28;20497;-68
2022/07/19 12:08:35;;;;;;;2.70;2.60;;;33.10;50.70;;;;;;4990144;28;20564;-67
2022/07/19 12:11:02;;;;;;;2.63;2.43;;;33.20;51.20;;;;;;4985702;28;20521;-69
2022/07/19 12:13:31;;;;;;;2.53;2.43;;;33.20;51.20;;;;;;4990983;28;20463;-68
2022/07/19 12:16:01;;;;;;;1.83;1.83;;;33.30;50.30;;;;;;4989697;28;20472;-68
2022/07/19 12:18:43;;;;;;;2.13;2.13;;;33.30;50.20;;;;;;4991805;28;20577;-67
2022/07/19 12:21:21;;;;;;;2.53;2.43;;;33.40;51.10;;;;;;4986160;28;20999;-67
2022/07/19 12:24:11;;;;;;;1.90;1.90;;;33.50;49.00;;;;;;4990217;28;20532;-68
2022/07/19 12:26:40;;;;;;;2.20;2.10;;;33.70;48.60;;;;;;4988784;28;20555;-67
2022/07/19 12:29:21;;;;;;;2.17;2.10;;;33.80;48.60;;;;;;4987829;28;20857;-68
2022/07/19 12:31:49;;;;;;;2.07;2.07;;;33.80;48.70;;;;;;4983832;28;20486;-68
2022/07/19 12:34:17;;;;;;;2.07;1.97;;;33.60;48.00;;;;;;4990283;28;20532;-68
2022/07/19 12:36:44;;;;;;;2.33;2.23;;;33.50;48.10;;;;;;4989105;28;20499;-67
2022/07/19 12:39:21;;;;;;;2.27;2.27;;;33.70;47.60;;;;;;4991353;28;20523;-67
2022/07/19 12:42:00;;;;;;;2.30;2.20;;;33.80;47.10;;;;;;4990197;28;20528;-68
2022/07/19 12:44:27;;;;;;;2.47;2.27;;;33.80;47.00;;;;;;4994536;28;20961;-67
2022/07/19 12:46:54;;;;;;;1.93;1.93;;;33.40;47.00;;;;;;4994421;28;20505;-69
2022/07/19 12:49:21;;;;;;;2.07;2.07;;;33.30;46.90;;;;;;4994678;28;20596;-68
2022/07/19 12:51:48;;;;;;;1.93;1.93;;;33.30;47.90;;;;;;4992961;28;20504;-68
2022/07/19 12:54:15;;;;;;;3.03;2.40;;;33.50;47.90;;;;;;4993139;28;20529;-68
2022/07/19 12:56:43;;;;;;;2.27;2.27;;;33.60;46.90;;;;;;4992127;28;20470;-69
2022/07/19 13:01:54;;;;;;;3.30;2.10;;;33.60;45.50;;;;;;4991656;28;20838;-68
2022/07/19 13:04:21;;;;;;;3.00;2.27;;;33.50;46.40;;;;;;4994522;28;20603;-68
2022/07/19 13:06:49;;;;;;;2.80;2.33;;;33.60;46.50;;;;;;4993402;28;20497;-68
2022/07/19 13:09:15;;;;;;;2.40;2.13;;;33.60;46.40;;;;;;4990795;28;20588;-68
2022/07/19 13:11:43;;;;;;;2.00;1.90;;;33.80;45.10;;;;;;4994254;28;20473;-68
2022/07/19 13:14:11;;;;;;;2.43;2.43;;;33.80;45.20;;;;;;4993513;28;20470;-68
2022/07/19 13:16:38;;;;;;;2.90;2.60;;;33.90;45.60;;;;;;4991930;28;21227;-67
2022/07/19 13:19:05;;;;;;;3.33;3.23;;;33.90;46.00;;;;;;4993829;28;20549;-68
2022/07/19 13:21:32;;;;;;;2.87;2.77;;;33.80;45.20;;;;;;4991890;28;20501;-68
2022/07/19 13:23:58;;;;;;;3.07;2.83;;;33.80;45.10;;;;;;4992685;28;20470;-68
2022/07/19 13:26:25;;;;;;;2.53;2.43;;;33.70;45.30;;;;;;4992483;28;20497;-68
2022/07/19 13:28:53;;;;;;;2.23;2.13;;;33.90;45.20;;;;;;4992195;28;20489;-67
2022/07/19 13:31:20;;;;;;;3.03;2.87;;;34.00;45.20;;;;;;4987084;28;21030;-67
2022/07/19 13:33:47;;;;;;;3.17;2.97;;;34.10;45.00;;;;;;4992177;28;20535;-68
2022/07/19 13:36:14;;;;;;;2.60;2.50;;;34.10;45.00;;;;;;4992756;28;20466;-68
2022/07/19 13:38:41;;;;;;;2.17;2.07;;;34.20;44.30;;;;;;4987862;28;21012;-68
2022/07/19 13:41:09;;;;;;;2.67;2.50;;;34.30;44.60;;;;;;4988642;28;20467;-68
2022/07/19 13:43:35;;;;;;;2.50;2.40;;;34.30;43.10;;;;;;4993237;28;20469;-68
2022/07/19 13:46:03;;;;;;;2.90;2.80;;;34.20;42.60;;;;;;4985698;28;20518;-68
2022/07/19 13:48:30;;;;;;;3.07;2.83;;;34.10;43.20;;;;;;4990428;28;20567;-68
2022/07/19 13:50:57;;;;;;;2.77;2.67;;;34.10;43.50;;;;;;4994192;28;20465;-67
2022/07/19 13:53:24;;;;;;;2.30;2.20;;;34.00;44.70;;;;;;4992054;28;20479;-68
2022/07/19 13:55:51;;;;;;;2.93;2.73;;;33.90;43.80;;;;;;4992845;28;20581;-68
2022/07/19 13:58:17;;;;;;;2.53;2.37;;;34.00;44.10;;;;;;4989780;28;20563;-68
2022/07/19 14:00:45;;;;;;;2.87;2.77;;;34.10;44.20;;;;;;4990399;28;20842;-68
2022/07/19 14:03:14;;;;;;;2.40;2.30;;;34.40;43.00;;;;;;4988359;28;21022;-70
2022/07/19 14:05:41;;;;;;;2.20;2.20;;;34.40;42.90;;;;;;4993199;28;20848;-69
2022/07/19 14:08:08;;;;;;;2.60;2.50;;;34.40;43.40;;;;;;4991671;28;20897;-69
2022/07/19 14:10:35;;;;;;;2.57;2.37;;;34.40;42.90;;;;;;4988580;28;20549;-68
2022/07/19 14:13:02;;;;;;;2.37;2.23;;;34.40;43.40;;;;;;4992121;28;20501;-67
2022/07/19 14:15:29;;;;;;;2.50;2.50;;;34.40;42.50;;;;;;4991814;28;20472;-67
2022/07/19 14:17:56;;;;;;;2.40;2.30;;;34.40;43.90;;;;;;4990438;28;20473;-67
2022/07/19 14:20:24;;;;;;;2.70;2.60;;;34.50;43.60;;;;;;4992399;28;20982;-66
2022/07/19 14:22:51;;;;;;;2.60;2.40;;;34.40;43.00;;;;;;4992196;28;20474;-68
2022/07/19 14:25:18;;;;;;;2.20;2.20;;;34.50;42.90;;;;;;4992814;28;20809;-69
2022/07/19 14:27:45;;;;;;;2.57;2.47;;;34.50;41.60;;;;;;4991531;28;20497;-69
2022/07/19 14:30:12;;;;;;;2.60;2.50;;;34.50;41.80;;;;;;4988228;28;20492;-69
2022/07/19 14:32:39;;;;;;;2.63;2.53;;;34.50;42.30;;;;;;4989710;28;20581;-68
2022/07/19 14:35:06;;;;;;;2.73;2.40;;;34.60;42.20;;;;;;4992546;28;20510;-69
2022/07/19 14:37:34;;;;;;;2.33;2.33;;;34.70;42.30;;;;;;4987419;28;20466;-68
2022/07/19 14:40:01;;;;;;;3.47;3.27;;;34.70;42.90;;;;;;4992111;28;20486;-68
2022/07/19 14:42:29;;;;;;;2.50;2.50;;;34.70;43.60;;;;;;4992023;28;20975;-68
2022/07/19 14:44:56;;;;;;;3.07;2.87;;;34.80;43.30;;;;;;4991463;28;20469;-68
2022/07/19 14:47:22;;;;;;;3.00;2.67;;;34.80;42.50;;;;;;4989735;28;20489;-68
2022/07/19 14:49:49;;;;;;;2.77;2.77;;;34.80;42.30;;;;;;4991650;28;20489;-68
2022/07/19 14:52:16;;;;;;;5.03;2.63;;;34.70;43.00;;;;;;4989811;28;20549;-68
2022/07/19 14:54:44;;;;;;;2.77;2.77;;;34.60;42.50;;;;;;4989987;28;20469;-68
2022/07/19 14:57:11;;;;;;;2.90;2.80;;;34.70;43.60;;;;;;4990586;28;20466;-69
2022/07/19 14:59:38;;;;;;;3.20;3.10;;;34.70;42.90;;;;;;4990375;28;20596;-67
2022/07/19 15:02:05;;;;;;;2.87;2.77;;;34.60;42.60;;;;;;4986950;28;20471;-68
2022/07/19 15:04:31;;;;;;;3.17;3.07;;;34.70;44.10;;;;;;4991457;28;20473;-68
2022/07/19 15:06:58;;;;;;;2.60;2.50;;;34.80;43.80;;;;;;4990864;28;20512;-69
2022/07/19 15:09:25;;;;;;;2.70;2.60;;;34.80;43.70;;;;;;4991896;28;20478;-69
2022/07/19 15:11:53;;;;;;;2.70;2.70;;;34.80;44.90;;;;;;4992329;28;20467;-69
2022/07/19 15:14:20;;;;;;;3.00;2.80;;;34.90;43.40;;;;;;4992036;28;20473;-69
2022/07/19 15:16:47;;;;;;;2.30;2.20;;;34.90;43.70;;;;;;4991694;28;20572;-69
2022/07/19 15:19:13;;;;;;;2.80;2.70;;;34.90;43.20;;;;;;4990992;28;20489;-69
2022/07/19 15:21:40;;;;;;;2.50;2.30;;;35.00;43.90;;;;;;4988391;28;20474;-69
2022/07/19 15:24:07;;;;;;;2.53;2.53;;;35.00;43.90;;;;;;4989399;28;20961;-68
2022/07/19 15:26:34;;;;;;;3.00;2.90;;;34.90;44.40;;;;;;4988917;28;20467;-68
2022/07/19 15:29:02;;;;;;;2.60;2.60;;;34.90;44.70;;;;;;4991302;28;21065;-68
2022/07/19 15:31:28;;;;;;;2.70;2.70;;;34.90;44.70;;;;;;4991465;28;20474;-68
2022/07/19 15:33:55;;;;;;;2.90;2.80;;;35.00;44.80;;;;;;4990198;28;20536;-68
2022/07/19 15:36:23;;;;;;;3.23;3.00;;;35.10;45.10;;;;;;4991369;28;20835;-69
2022/07/19 15:38:50;;;;;;;2.27;2.27;;;35.10;44.80;;;;;;4986655;28;20521;-69
2022/07/19 15:41:18;;;;;;;2.80;2.80;;;35.00;45.10;;;;;;4988552;28;20474;-68
2022/07/19 15:43:45;;;;;;;2.80;2.70;;;34.90;45.00;;;;;;4989988;28;20532;-69
2022/07/19 15:46:13;;;;;;;2.10;2.10;;;34.80;45.50;;;;;;4988928;28;20505;-69
2022/07/19 15:48:41;;;;;;;3.20;3.03;;;34.80;45.40;;;;;;4983343;28;21009;-69
2022/07/19 15:51:08;;;;;;;2.60;2.60;;;34.70;45.20;;;;;;4989912;28;20540;-67
2022/07/19 15:53:36;;;;;;;3.30;3.20;;;34.70;45.70;;;;;;4989948;28;20894;-68
2022/07/19 15:56:03;;;;;;;2.90;2.80;;;34.80;45.90;;;;;;4990945;28;20474;-67
2022/07/19 15:58:30;;;;;;;3.20;3.00;;;34.60;45.50;;;;;;4985735;28;20488;-68
2022/07/19 16:00:57;;;;;;;2.90;2.80;;;34.60;46.00;;;;;;4984789;28;20504;-69
2022/07/19 16:03:25;;;;;;;2.60;2.60;;;34.60;45.80;;;;;;4990338;28;20503;-69
2022/07/19 16:05:51;;;;;;;2.83;2.73;;;34.50;45.80;;;;;;4991797;28;20457;-70
2022/07/19 16:08:18;;;;;;;3.17;2.97;;;34.60;45.90;;;;;;4989270;28;20521;-69
2022/07/19 16:10:45;;;;;;;3.40;2.63;;;34.60;45.60;;;;;;4989847;28;20473;-68
2022/07/19 16:13:11;;;;;;;2.90;2.90;;;34.50;45.70;;;;;;4990700;28;20476;-68
2022/07/19 16:15:38;;;;;;;3.77;3.47;;;34.50;45.90;;;;;;4989903;28;20956;-68
2022/07/19 16:18:05;;;;;;;3.20;3.10;;;34.50;45.80;;;;;;4989868;28;21028;-68
2022/07/19 16:20:33;;;;;;;2.87;2.77;;;34.40;45.10;;;;;;4989055;28;20552;-68
2022/07/19 16:23:00;;;;;;;2.80;2.80;;;34.40;45.00;;;;;;4985049;28;20474;-69
2022/07/19 16:25:27;;;;;;;2.63;2.63;;;34.30;45.30;;;;;;4990604;28;20497;-69
2022/07/19 16:27:54;;;;;;;3.33;3.23;;;34.30;45.30;;;;;;4990713;28;20793;-69
2022/07/19 16:30:21;;;;;;;2.77;2.67;;;34.30;45.60;;;;;;4988071;28;20489;-69
2022/07/19 16:32:47;;;;;;;2.80;2.70;;;34.20;45.50;;;;;;4989657;28;20473;-68
2022/07/19 16:35:14;;;;;;;2.53;2.37;;;34.10;45.70;;;;;;4990365;28;20532;-69
2022/07/19 16:37:43;;;;;;;2.50;2.40;;;34.10;45.80;;;;;;4978428;28;20524;-69
2022/07/19 16:40:12;;;;;;;2.80;2.60;;;34.10;45.10;;;;;;4988309;28;20491;-70
2022/07/19 16:42:38;;;;;;;3.00;3.00;;;34.00;45.90;;;;;;4989002;28;20497;-70
2022/07/19 16:45:06;;;;;;;2.57;2.47;;;34.00;45.60;;;;;;4990485;28;20548;-69
2022/07/19 16:47:33;;;;;;;3.07;2.97;;;34.00;45.60;;;;;;4990026;28;20980;-68
2022/07/19 16:50:00;;;;;;;2.90;2.83;;;34.00;45.80;;;;;;4991258;28;20543;-66
2022/07/19 16:52:26;;;;;;;2.83;2.73;;;34.00;45.40;;;;;;4990379;28;20481;-68
2022/07/19 16:54:54;;;;;;;2.57;2.57;;;34.00;45.40;;;;;;4989520;28;20477;-69
2022/07/19 16:57:21;;;;;;;3.13;2.93;;;33.90;44.70;;;;;;4989056;28;22535;-69